Terminal Aerodrome Forecast
Issued by NWS

Home | Current Version | Previous Version | Text Only | Print | Product List | Glossary On
Versions: 1 2 3 4 5 6 7 8 9 10 11 12 13 14 15 16 17 18 19 20 21 22 23 24 25 26 27 28 29
000
FTUS41 KOKX 062320
TAFGON
TAF
KGON 062320Z 0700/0724 17008KT P6SM SCT050 BKN250
     FM070100 17006KT P6SM SCT020 BKN100
     FM070400 15004KT 4SM BR SCT004 BKN015
     FM070700 14004KT 2SM BR BKN004
     FM071000 14004KT 1SM BR BKN004
     FM071300 16008KT 4SM BR SCT007 BKN015
     FM071500 17010KT 6SM HZ SCT015 BKN040=

USA.gov is the U.S. government's official web portal to all federal, state and local government web resources and services.